Terminal Aerodrome Forecast
Issued by NWS Grand Forks, ND

Home | Current Version | Previous Version | Graphics & Text | Print | Product List | Glossary On
Versions: 1 2 3 4 5 6 7 8 9 10 11 12 13 14 15 16 17 18 19
000
FTUS43 KFGF 241900 AAA
TAFFAR
TAF AMD
KFAR 241951Z 2420/2518 33020G26KT P6SM OVC018
      TEMPO 2420/2422 SCT020
     FM242200 32009KT P6SM BKN250
     FM250700 23005KT P6SM BKN100
     FM251100 22005KT P6SM OVC035=

USA.gov is the U.S. government's official web portal to all federal, state and local government web resources and services.